sensor_id;sensor_type;location;lat;lon;timestamp;temperature;humidity
21590;DHT22;10957;50.968;6.828;2023-03-14T00:05:01;9.70;99.90
21590;DHT22;10957;50.968;6.828;2023-03-14T00:10:10;9.70;99.90
21590;DHT22;10957;50.968;6.828;2023-03-14T00:15:13;9.90;99.90
21590;DHT22;10957;50.968;6.828;2023-03-14T00:20:14;9.80;99.90
21590;DHT22;10957;50.968;6.828;2023-03-14T00:25:15;9.50;99.90
21590;DHT22;10957;50.968;6.828;2023-03-14T00:30:17;9.90;99.90
21590;DHT22;10957;50.968;6.828;2023-03-14T00:35:18;10.10;99.90
21590;DHT22;10957;50.968;6.828;2023-03-14T00:40:21;10.40;99.90
21590;DHT22;10957;50.968;6.828;2023-03-14T00:45:23;10.20;94.00
21590;DHT22;10957;50.968;6.828;2023-03-14T00:50:24;10.30;80.50
21590;DHT22;10957;50.968;6.828;2023-03-14T00:55:26;10.20;82.30
21590;DHT22;10957;50.968;6.828;2023-03-14T01:00:27;10.70;99.90
21590;DHT22;10957;50.968;6.828;2023-03-14T01:05:28;10.30;99.90
21590;DHT22;10957;50.968;6.828;2023-03-14T01:10:30;9.70;99.90
21590;DHT22;10957;50.968;6.828;2023-03-14T01:15:34;9.40;1.00
21590;DHT22;10957;50.968;6.828;2023-03-14T01:20:37;9.60;1.00
21590;DHT22;10957;50.968;6.828;2023-03-14T01:25:41;9.80;1.00
21590;DHT22;10957;50.968;6.828;2023-03-14T01:30:43;9.00;1.00
21590;DHT22;10957;50.968;6.828;2023-03-14T01:35:44;9.00;1.00
21590;DHT22;10957;50.968;6.828;2023-03-14T01:40:46;8.90;1.00
21590;DHT22;10957;50.968;6.828;2023-03-14T01:51:37;9.60;1.00
21590;DHT22;10957;50.968;6.828;2023-03-14T01:56:41;9.40;1.00
21590;DHT22;10957;50.968;6.828;2023-03-14T02:01:46;9.40;1.00
21590;DHT22;10957;50.968;6.828;2023-03-14T02:12:04;9.20;1.00
21590;DHT22;10957;50.968;6.828;2023-03-14T02:17:23;9.10;1.00
21590;DHT22;10957;50.968;6.828;2023-03-14T02:22:37;9.10;1.00
21590;DHT22;10957;50.968;6.828;2023-03-14T02:27:43;9.10;1.00
21590;DHT22;10957;50.968;6.828;2023-03-14T02:32:48;9.00;1.00
21590;DHT22;10957;50.968;6.828;2023-03-14T02:37:59;8.70;1.00
21590;DHT22;10957;50.968;6.828;2023-03-14T02:43:06;9.10;1.00
21590;DHT22;10957;50.968;6.828;2023-03-14T02:48:14;8.60;1.00
21590;DHT22;10957;50.968;6.828;2023-03-14T02:53:25;9.10;1.00
21590;DHT22;10957;50.968;6.828;2023-03-14T02:58:30;8.70;1.00
21590;DHT22;10957;50.968;6.828;2023-03-14T03:03:40;8.60;1.00
21590;DHT22;10957;50.968;6.828;2023-03-14T03:08:41;8.80;1.00
21590;DHT22;10957;50.968;6.828;2023-03-14T03:13:43;8.90;1.00
21590;DHT22;10957;50.968;6.828;2023-03-14T03:18:44;8.50;1.00
21590;DHT22;10957;50.968;6.828;2023-03-14T03:23:45;8.60;1.00
21590;DHT22;10957;50.968;6.828;2023-03-14T03:28:46;8.40;8.30
21590;DHT22;10957;50.968;6.828;2023-03-14T03:33:50;9.00;21.50
21590;DHT22;10957;50.968;6.828;2023-03-14T03:38:51;8.60;36.90
21590;DHT22;10957;50.968;6.828;2023-03-14T03:43:52;8.60;24.70
21590;DHT22;10957;50.968;6.828;2023-03-14T03:48:56;8.90;18.50
21590;DHT22;10957;50.968;6.828;2023-03-14T03:53:58;9.00;8.60
21590;DHT22;10957;50.968;6.828;2023-03-14T03:59:04;9.10;1.00
21590;DHT22;10957;50.968;6.828;2023-03-14T04:04:06;9.10;1.00
21590;DHT22;10957;50.968;6.828;2023-03-14T04:09:08;9.30;1.00
21590;DHT22;10957;50.968;6.828;2023-03-14T04:14:20;9.20;1.00
21590;DHT22;10957;50.968;6.828;2023-03-14T04:19:23;9.70;1.00
21590;DHT22;10957;50.968;6.828;2023-03-14T04:24:27;9.50;1.00
21590;DHT22;10957;50.968;6.828;2023-03-14T04:29:31;9.60;1.00
21590;DHT22;10957;50.968;6.828;2023-03-14T04:34:32;9.40;1.00
21590;DHT22;10957;50.968;6.828;2023-03-14T04:39:33;9.20;1.00
21590;DHT22;10957;50.968;6.828;2023-03-14T04:45:01;9.40;1.00
21590;DHT22;10957;50.968;6.828;2023-03-14T04:50:04;9.60;1.00
21590;DHT22;10957;50.968;6.828;2023-03-14T04:55:06;9.60;1.00
21590;DHT22;10957;50.968;6.828;2023-03-14T05:00:08;9.60;1.00
21590;DHT22;10957;50.968;6.828;2023-03-14T05:05:28;9.60;1.00
21590;DHT22;10957;50.968;6.828;2023-03-14T05:10:39;9.20;1.00
21590;DHT22;10957;50.968;6.828;2023-03-14T05:15:49;9.50;1.00
21590;DHT22;10957;50.968;6.828;2023-03-14T05:21:13;9.60;1.00
21590;DHT22;10957;50.968;6.828;2023-03-14T05:26:20;9.70;1.00
21590;DHT22;10957;50.968;6.828;2023-03-14T05:31:41;9.40;1.00
21590;DHT22;10957;50.968;6.828;2023-03-14T05:36:52;9.20;1.00
21590;DHT22;10957;50.968;6.828;2023-03-14T05:42:22;9.60;1.00
21590;DHT22;10957;50.968;6.828;2023-03-14T05:47:26;9.70;1.00
21590;DHT22;10957;50.968;6.828;2023-03-14T05:52:46;9.50;1.00
21590;DHT22;10957;50.968;6.828;2023-03-14T05:58:03;9.50;1.00
21590;DHT22;10957;50.968;6.828;2023-03-14T06:03:24;9.50;1.00
21590;DHT22;10957;50.968;6.828;2023-03-14T06:08:25;9.40;1.00
21590;DHT22;10957;50.968;6.828;2023-03-14T06:13:27;9.30;1.00
21590;DHT22;10957;50.968;6.828;2023-03-14T06:18:29;9.30;1.00
21590;DHT22;10957;50.968;6.828;2023-03-14T06:23:31;9.30;1.00
21590;DHT22;10957;50.968;6.828;2023-03-14T06:28:34;9.30;1.00
21590;DHT22;10957;50.968;6.828;2023-03-14T06:33:38;9.40;1.00
21590;DHT22;10957;50.968;6.828;2023-03-14T06:38:41;9.70;1.00
21590;DHT22;10957;50.968;6.828;2023-03-14T06:43:42;9.60;1.00
21590;DHT22;10957;50.968;6.828;2023-03-14T06:48:44;9.50;1.00
21590;DHT22;10957;50.968;6.828;2023-03-14T06:53:47;9.90;1.00
21590;DHT22;10957;50.968;6.828;2023-03-14T06:58:50;9.70;1.00
21590;DHT22;10957;50.968;6.828;2023-03-14T07:03:54;9.80;1.00
21590;DHT22;10957;50.968;6.828;2023-03-14T07:08:57;9.70;1.00
21590;DHT22;10957;50.968;6.828;2023-03-14T07:13:59;9.80;1.00
21590;DHT22;10957;50.968;6.828;2023-03-14T07:19:01;10.00;1.00
21590;DHT22;10957;50.968;6.828;2023-03-14T07:24:02;10.00;1.00
21590;DHT22;10957;50.968;6.828;2023-03-14T07:29:06;10.10;1.00
21590;DHT22;10957;50.968;6.828;2023-03-14T07:34:08;10.40;1.00
21590;DHT22;10957;50.968;6.828;2023-03-14T07:39:13;10.40;1.00
21590;DHT22;10957;50.968;6.828;2023-03-14T07:44:33;10.50;1.00
21590;DHT22;10957;50.968;6.828;2023-03-14T07:49:34;10.10;1.00
21590;DHT22;10957;50.968;6.828;2023-03-14T07:54:36;10.40;1.00
21590;DHT22;10957;50.968;6.828;2023-03-14T07:59:37;10.50;1.00
21590;DHT22;10957;50.968;6.828;2023-03-14T08:04:39;10.40;1.00
21590;DHT22;10957;50.968;6.828;2023-03-14T08:09:41;10.50;1.00
21590;DHT22;10957;50.968;6.828;2023-03-14T08:14:42;10.90;1.00
21590;DHT22;10957;50.968;6.828;2023-03-14T08:19:43;10.70;1.00
21590;DHT22;10957;50.968;6.828;2023-03-14T08:24:45;11.20;1.00
21590;DHT22;10957;50.968;6.828;2023-03-14T08:29:46;11.10;1.00
21590;DHT22;10957;50.968;6.828;2023-03-14T08:34:47;11.20;1.00
21590;DHT22;10957;50.968;6.828;2023-03-14T08:39:49;11.20;1.00
21590;DHT22;10957;50.968;6.828;2023-03-14T08:44:51;11.00;1.00
21590;DHT22;10957;50.968;6.828;2023-03-14T08:49:53;11.20;1.00
21590;DHT22;10957;50.968;6.828;2023-03-14T08:54:54;11.10;1.00
21590;DHT22;10957;50.968;6.828;2023-03-14T08:59:56;10.70;1.00
21590;DHT22;10957;50.968;6.828;2023-03-14T09:04:58;10.60;1.00
21590;DHT22;10957;50.968;6.828;2023-03-14T09:09:59;10.60;1.00
21590;DHT22;10957;50.968;6.828;2023-03-14T09:15:00;10.80;1.00
21590;DHT22;10957;50.968;6.828;2023-03-14T09:20:04;10.90;1.00
21590;DHT22;10957;50.968;6.828;2023-03-14T09:25:10;11.10;1.00
21590;DHT22;10957;50.968;6.828;2023-03-14T09:30:12;10.80;1.00
21590;DHT22;10957;50.968;6.828;2023-03-14T09:35:13;10.50;1.00
21590;DHT22;10957;50.968;6.828;2023-03-14T09:40:19;9.40;1.00
21590;DHT22;10957;50.968;6.828;2023-03-14T09:45:31;9.00;1.00
21590;DHT22;10957;50.968;6.828;2023-03-14T09:50:40;8.40;1.00
21590;DHT22;10957;50.968;6.828;2023-03-14T09:55:43;8.20;1.00
21590;DHT22;10957;50.968;6.828;2023-03-14T10:00:45;8.70;1.00
21590;DHT22;10957;50.968;6.828;2023-03-14T10:05:47;8.40;1.00
21590;DHT22;10957;50.968;6.828;2023-03-14T10:10:48;8.60;1.00
21590;DHT22;10957;50.968;6.828;2023-03-14T10:21:06;8.20;1.00
21590;DHT22;10957;50.968;6.828;2023-03-14T10:26:11;8.20;1.00
21590;DHT22;10957;50.968;6.828;2023-03-14T10:31:14;8.10;1.00
21590;DHT22;10957;50.968;6.828;2023-03-14T10:36:24;8.20;1.00
21590;DHT22;10957;50.968;6.828;2023-03-14T10:41:30;8.30;1.00
21590;DHT22;10957;50.968;6.828;2023-03-14T10:46:32;8.20;1.00
21590;DHT22;10957;50.968;6.828;2023-03-14T10:51:53;8.30;1.00
21590;DHT22;10957;50.968;6.828;2023-03-14T10:56:59;7.90;1.00
21590;DHT22;10957;50.968;6.828;2023-03-14T11:07:24;8.40;1.00
21590;DHT22;10957;50.968;6.828;2023-03-14T11:13:00;8.70;1.00
21590;DHT22;10957;50.968;6.828;2023-03-14T11:34:19;9.20;1.00
21590;DHT22;10957;50.968;6.828;2023-03-14T11:39:24;8.90;1.00
21590;DHT22;10957;50.968;6.828;2023-03-14T11:44:30;7.20;1.00
21590;DHT22;10957;50.968;6.828;2023-03-14T11:55:21;7.30;1.00
21590;DHT22;10957;50.968;6.828;2023-03-14T12:00:27;7.50;1.00
21590;DHT22;10957;50.968;6.828;2023-03-14T12:10:48;7.50;1.00
21590;DHT22;10957;50.968;6.828;2023-03-14T12:15:58;7.70;1.00
21590;DHT22;10957;50.968;6.828;2023-03-14T12:21:02;7.70;1.00
21590;DHT22;10957;50.968;6.828;2023-03-14T12:37:10;7.50;1.00
21590;DHT22;10957;50.968;6.828;2023-03-14T12:52:45;7.10;1.00
21590;DHT22;10957;50.968;6.828;2023-03-14T12:57:59;7.30;1.00
21590;DHT22;10957;50.968;6.828;2023-03-14T13:08:41;7.10;1.00
21590;DHT22;10957;50.968;6.828;2023-03-14T13:14:07;7.20;1.00
21590;DHT22;10957;50.968;6.828;2023-03-14T13:19:17;7.20;1.00
21590;DHT22;10957;50.968;6.828;2023-03-14T13:24:26;6.80;1.00
21590;DHT22;10957;50.968;6.828;2023-03-14T13:29:31;7.60;1.00
21590;DHT22;10957;50.968;6.828;2023-03-14T13:34:33;7.40;99.90
21590;DHT22;10957;50.968;6.828;2023-03-14T13:39:39;7.00;99.90
21590;DHT22;10957;50.968;6.828;2023-03-14T13:44:41;6.50;99.90
21590;DHT22;10957;50.968;6.828;2023-03-14T13:49:43;6.70;99.90
21590;DHT22;10957;50.968;6.828;2023-03-14T13:54:44;6.80;99.90
21590;DHT22;10957;50.968;6.828;2023-03-14T14:00:07;6.50;99.90
21590;DHT22;10957;50.968;6.828;2023-03-14T14:05:11;7.10;99.90
21590;DHT22;10957;50.968;6.828;2023-03-14T14:10:14;7.30;99.90
21590;DHT22;10957;50.968;6.828;2023-03-14T14:15:22;7.10;99.90
21590;DHT22;10957;50.968;6.828;2023-03-14T14:20:33;7.10;99.90
21590;DHT22;10957;50.968;6.828;2023-03-14T14:25:36;7.50;99.90
21590;DHT22;10957;50.968;6.828;2023-03-14T14:30:38;6.60;99.90
21590;DHT22;10957;50.968;6.828;2023-03-14T14:35:39;7.30;99.90
21590;DHT22;10957;50.968;6.828;2023-03-14T14:40:45;6.70;99.90
21590;DHT22;10957;50.968;6.828;2023-03-14T14:45:49;7.10;99.90
21590;DHT22;10957;50.968;6.828;2023-03-14T14:51:04;7.40;99.90
21590;DHT22;10957;50.968;6.828;2023-03-14T14:56:24;7.40;99.90
21590;DHT22;10957;50.968;6.828;2023-03-14T15:01:38;7.20;99.90
21590;DHT22;10957;50.968;6.828;2023-03-14T15:06:42;7.30;99.90
21590;DHT22;10957;50.968;6.828;2023-03-14T15:11:44;7.30;99.90
21590;DHT22;10957;50.968;6.828;2023-03-14T15:16:45;7.30;99.90
21590;DHT22;10957;50.968;6.828;2023-03-14T15:21:47;7.30;99.90
21590;DHT22;10957;50.968;6.828;2023-03-14T15:26:48;7.40;99.90
21590;DHT22;10957;50.968;6.828;2023-03-14T15:31:49;7.30;99.90
21590;DHT22;10957;50.968;6.828;2023-03-14T15:36:50;7.40;99.90
21590;DHT22;10957;50.968;6.828;2023-03-14T15:41:51;7.00;99.90
21590;DHT22;10957;50.968;6.828;2023-03-14T15:46:53;7.20;99.90
21590;DHT22;10957;50.968;6.828;2023-03-14T15:51:54;7.50;99.90
21590;DHT22;10957;50.968;6.828;2023-03-14T15:56:56;7.20;99.90
21590;DHT22;10957;50.968;6.828;2023-03-14T16:01:57;7.30;99.90
21590;DHT22;10957;50.968;6.828;2023-03-14T16:06:58;6.60;99.90
21590;DHT22;10957;50.968;6.828;2023-03-14T16:12:00;7.00;99.90
21590;DHT22;10957;50.968;6.828;2023-03-14T16:17:01;7.10;99.90
21590;DHT22;10957;50.968;6.828;2023-03-14T16:22:02;6.40;99.90
21590;DHT22;10957;50.968;6.828;2023-03-14T16:27:04;6.90;15.40
21590;DHT22;10957;50.968;6.828;2023-03-14T16:32:05;6.70;1.00
21590;DHT22;10957;50.968;6.828;2023-03-14T16:37:08;6.90;1.00
21590;DHT22;10957;50.968;6.828;2023-03-14T16:42:09;6.90;1.00
21590;DHT22;10957;50.968;6.828;2023-03-14T16:47:11;6.60;1.00
21590;DHT22;10957;50.968;6.828;2023-03-14T16:52:13;6.00;1.00
21590;DHT22;10957;50.968;6.828;2023-03-14T16:57:14;6.60;1.00
21590;DHT22;10957;50.968;6.828;2023-03-14T17:02:15;6.60;1.00
21590;DHT22;10957;50.968;6.828;2023-03-14T17:07:16;6.30;1.00
21590;DHT22;10957;50.968;6.828;2023-03-14T17:12:17;5.70;1.00
21590;DHT22;10957;50.968;6.828;2023-03-14T17:17:19;5.90;1.00
21590;DHT22;10957;50.968;6.828;2023-03-14T17:22:20;5.70;1.00
21590;DHT22;10957;50.968;6.828;2023-03-14T17:27:21;5.80;1.00
21590;DHT22;10957;50.968;6.828;2023-03-14T17:32:22;5.50;1.00
21590;DHT22;10957;50.968;6.828;2023-03-14T17:37:24;5.80;1.00
21590;DHT22;10957;50.968;6.828;2023-03-14T17:42:25;5.70;1.00
21590;DHT22;10957;50.968;6.828;2023-03-14T17:47:26;5.80;1.00
21590;DHT22;10957;50.968;6.828;2023-03-14T17:52:28;5.70;1.00
21590;DHT22;10957;50.968;6.828;2023-03-14T17:57:29;5.30;1.00
21590;DHT22;10957;50.968;6.828;2023-03-14T18:02:30;5.10;1.00
21590;DHT22;10957;50.968;6.828;2023-03-14T18:07:35;5.90;1.00
21590;DHT22;10957;50.968;6.828;2023-03-14T18:12:37;5.70;1.00
21590;DHT22;10957;50.968;6.828;2023-03-14T18:17:39;5.70;1.00
21590;DHT22;10957;50.968;6.828;2023-03-14T18:22:41;5.60;1.00
21590;DHT22;10957;50.968;6.828;2023-03-14T18:27:42;5.60;1.00
21590;DHT22;10957;50.968;6.828;2023-03-14T18:32:43;5.30;1.00
21590;DHT22;10957;50.968;6.828;2023-03-14T18:37:45;5.50;1.00
21590;DHT22;10957;50.968;6.828;2023-03-14T18:42:46;5.20;1.00
21590;DHT22;10957;50.968;6.828;2023-03-14T18:47:47;5.40;1.00
21590;DHT22;10957;50.968;6.828;2023-03-14T18:52:49;4.70;1.00
21590;DHT22;10957;50.968;6.828;2023-03-14T18:57:50;5.10;1.00
21590;DHT22;10957;50.968;6.828;2023-03-14T19:02:53;4.80;1.00
21590;DHT22;10957;50.968;6.828;2023-03-14T19:07:54;4.40;1.00
21590;DHT22;10957;50.968;6.828;2023-03-14T19:12:57;5.10;1.00
21590;DHT22;10957;50.968;6.828;2023-03-14T19:17:59;4.80;1.00
21590;DHT22;10957;50.968;6.828;2023-03-14T19:23:00;4.70;1.00
21590;DHT22;10957;50.968;6.828;2023-03-14T19:28:01;4.60;1.00
21590;DHT22;10957;50.968;6.828;2023-03-14T19:33:02;4.80;1.00
21590;DHT22;10957;50.968;6.828;2023-03-14T19:38:04;4.60;1.00
21590;DHT22;10957;50.968;6.828;2023-03-14T19:43:05;4.30;1.00
21590;DHT22;10957;50.968;6.828;2023-03-14T19:48:08;4.60;1.00
21590;DHT22;10957;50.968;6.828;2023-03-14T19:53:11;4.40;1.00
21590;DHT22;10957;50.968;6.828;2023-03-14T19:58:12;4.00;1.00
21590;DHT22;10957;50.968;6.828;2023-03-14T20:03:13;4.60;1.00
21590;DHT22;10957;50.968;6.828;2023-03-14T20:08:15;3.90;1.00
21590;DHT22;10957;50.968;6.828;2023-03-14T20:13:16;4.30;1.00
21590;DHT22;10957;50.968;6.828;2023-03-14T20:18:17;3.70;1.00
21590;DHT22;10957;50.968;6.828;2023-03-14T20:23:19;3.90;1.00
21590;DHT22;10957;50.968;6.828;2023-03-14T20:28:20;4.10;1.00
21590;DHT22;10957;50.968;6.828;2023-03-14T20:33:21;3.90;1.00
21590;DHT22;10957;50.968;6.828;2023-03-14T20:38:23;3.90;1.00
21590;DHT22;10957;50.968;6.828;2023-03-14T20:43:27;3.30;1.00
21590;DHT22;10957;50.968;6.828;2023-03-14T20:48:30;3.40;1.00
21590;DHT22;10957;50.968;6.828;2023-03-14T20:53:31;3.30;1.00
21590;DHT22;10957;50.968;6.828;2023-03-14T20:58:33;3.20;1.00
21590;DHT22;10957;50.968;6.828;2023-03-14T21:03:34;2.90;1.00
21590;DHT22;10957;50.968;6.828;2023-03-14T21:08:35;3.10;1.00
21590;DHT22;10957;50.968;6.828;2023-03-14T21:13:37;2.80;1.00
21590;DHT22;10957;50.968;6.828;2023-03-14T21:18:38;2.50;1.00
21590;DHT22;10957;50.968;6.828;2023-03-14T21:23:39;2.70;1.00
21590;DHT22;10957;50.968;6.828;2023-03-14T21:28:41;2.50;1.00
21590;DHT22;10957;50.968;6.828;2023-03-14T21:33:42;2.70;1.00
21590;DHT22;10957;50.968;6.828;2023-03-14T21:38:44;2.60;1.00
21590;DHT22;10957;50.968;6.828;2023-03-14T21:43:46;2.70;1.00
21590;DHT22;10957;50.968;6.828;2023-03-14T21:48:47;2.20;1.00
21590;DHT22;10957;50.968;6.828;2023-03-14T21:53:49;2.10;1.00
21590;DHT22;10957;50.968;6.828;2023-03-14T21:58:50;2.30;1.00
21590;DHT22;10957;50.968;6.828;2023-03-14T22:03:52;2.20;1.00
21590;DHT22;10957;50.968;6.828;2023-03-14T22:08:53;1.80;1.00
21590;DHT22;10957;50.968;6.828;2023-03-14T22:13:57;2.20;1.00
21590;DHT22;10957;50.968;6.828;2023-03-14T22:18:59;1.70;1.00
21590;DHT22;10957;50.968;6.828;2023-03-14T22:24:01;2.00;1.00
21590;DHT22;10957;50.968;6.828;2023-03-14T22:29:03;2.00;1.00
21590;DHT22;10957;50.968;6.828;2023-03-14T22:34:04;2.10;1.00
21590;DHT22;10957;50.968;6.828;2023-03-14T22:39:05;2.10;1.00
21590;DHT22;10957;50.968;6.828;2023-03-14T22:44:09;2.30;1.00
21590;DHT22;10957;50.968;6.828;2023-03-14T22:49:12;1.70;1.00
21590;DHT22;10957;50.968;6.828;2023-03-14T22:54:15;2.30;1.00
21590;DHT22;10957;50.968;6.828;2023-03-14T22:59:18;2.20;1.00
21590;DHT22;10957;50.968;6.828;2023-03-14T23:04:22;2.10;1.00
21590;DHT22;10957;50.968;6.828;2023-03-14T23:09:25;2.20;1.00
21590;DHT22;10957;50.968;6.828;2023-03-14T23:14:31;2.20;1.00
21590;DHT22;10957;50.968;6.828;2023-03-14T23:19:35;1.90;1.00
21590;DHT22;10957;50.968;6.828;2023-03-14T23:24:40;2.40;1.00
21590;DHT22;10957;50.968;6.828;2023-03-14T23:29:41;2.20;8.30
21590;DHT22;10957;50.968;6.828;2023-03-14T23:34:43;2.50;26.10
21590;DHT22;10957;50.968;6.828;2023-03-14T23:39:44;2.50;57.00
21590;DHT22;10957;50.968;6.828;2023-03-14T23:44:46;2.50;83.40
21590;DHT22;10957;50.968;6.828;2023-03-14T23:49:47;2.20;95.70
21590;DHT22;10957;50.968;6.828;2023-03-14T23:54:48;2.50;99.90
21590;DHT22;10957;50.968;6.828;2023-03-14T23:59:49;2.50;99.90
